createdAt,value
2022-11-05T00:00:40.612Z,31.50
2022-11-05T00:03:28.950Z,31.80
2022-11-05T00:06:15.181Z,31.35
2022-11-05T00:09:00.527Z,31.49
2022-11-05T00:11:43.045Z,31.61
2022-11-05T00:14:28.651Z,31.17
2022-11-05T00:16:58.649Z,30.77
2022-11-05T00:19:26.762Z,31.07
2022-11-05T00:22:12.781Z,31.31
2022-11-05T00:24:58.210Z,31.20
2022-11-05T00:27:26.699Z,31.29
2022-11-05T00:29:57.449Z,31.38
2022-11-05T00:32:27.210Z,31.44
2022-11-05T00:34:55.230Z,31.46
2022-11-05T00:39:51.656Z,31.70
2022-11-05T00:42:37.886Z,31.61
2022-11-05T00:45:07.494Z,31.47
2022-11-05T00:47:54.956Z,31.54
2022-11-05T00:50:23.469Z,31.93
2022-11-05T00:52:58.934Z,31.88
2022-11-05T00:55:29.585Z,31.63
2022-11-05T00:57:58.442Z,31.85
2022-11-05T01:00:28.670Z,31.66
2022-11-05T01:03:03.117Z,31.22
2022-11-05T01:05:32.068Z,32.04
2022-11-05T01:08:00.669Z,31.75
2022-11-05T01:10:29.082Z,32.12
2022-11-05T01:12:57.730Z,31.72
2022-11-05T01:15:25.894Z,31.98
2022-11-05T01:17:54.574Z,31.84
2022-11-05T01:20:24.134Z,32.00
2022-11-05T01:22:52.509Z,31.72
2022-11-05T01:25:20.567Z,31.35
2022-11-05T01:27:49.032Z,31.57
2022-11-05T01:30:17.416Z,31.65
2022-11-05T01:32:45.930Z,31.76
2022-11-05T01:35:15.686Z,31.63
2022-11-05T01:37:45.851Z,31.41
2022-11-05T01:40:15.980Z,31.33
2022-11-05T01:42:44.875Z,31.74
2022-11-05T01:45:15.560Z,31.23
2022-11-05T01:47:56.404Z,31.53
2022-11-05T01:50:35.165Z,31.34
2022-11-05T01:53:10.242Z,31.33
2022-11-05T01:55:41.421Z,31.63
2022-11-05T01:58:11.921Z,31.66
2022-11-05T02:00:40.773Z,31.72
2022-11-05T02:03:09.575Z,32.15
2022-11-05T02:05:37.998Z,31.87
2022-11-05T02:08:09.695Z,32.12
2022-11-05T02:10:37.504Z,30.70
2022-11-05T02:13:05.995Z,32.06
2022-11-05T02:15:41.554Z,31.48
2022-11-05T02:18:17.743Z,31.61
2022-11-05T02:20:52.410Z,31.60
2022-11-05T02:23:50.208Z,31.18
2022-11-05T02:26:57.279Z,31.11
2022-11-05T02:29:55.948Z,31.38
2022-11-05T02:32:33.740Z,31.72
2022-11-05T02:35:17.408Z,31.61
2022-11-05T02:37:47.502Z,32.30
2022-11-05T02:40:19.297Z,32.24
2022-11-05T02:42:54.891Z,31.91
2022-11-05T02:45:35.644Z,31.61
2022-11-05T02:48:12.326Z,31.64
2022-11-05T02:50:48.047Z,31.44
2022-11-05T02:53:20.547Z,32.09
2022-11-05T02:55:54.315Z,31.70
2022-11-05T02:58:23.060Z,31.96
2022-11-05T03:00:53.441Z,31.96
2022-11-05T03:03:28.987Z,31.86
2022-11-05T03:06:14.969Z,31.63
2022-11-05T03:09:11.244Z,31.63
2022-11-05T03:11:43.584Z,31.58
2022-11-05T03:14:21.746Z,31.76
2022-11-05T03:16:54.398Z,31.91
2022-11-05T03:19:30.527Z,31.33
2022-11-05T03:22:02.487Z,31.64
2022-11-05T03:24:33.659Z,31.88
2022-11-05T03:27:05.531Z,31.84
2022-11-05T03:29:37.502Z,31.64
2022-11-05T03:32:07.075Z,31.79
2022-11-05T03:34:38.570Z,31.47
2022-11-05T03:37:07.933Z,31.46
2022-11-05T03:39:39.011Z,31.48
2022-11-05T03:42:10.316Z,31.54
2022-11-05T03:44:40.734Z,31.87
2022-11-05T03:47:12.693Z,31.87
2022-11-05T03:49:48.895Z,31.71
2022-11-05T03:52:19.665Z,32.14
2022-11-05T03:54:47.889Z,32.14
2022-11-05T03:57:19.820Z,31.79
2022-11-05T03:59:49.745Z,32.33
2022-11-05T04:02:19.912Z,32.46
2022-11-05T04:04:49.746Z,32.64
2022-11-05T04:07:35.742Z,33.19
2022-11-05T04:10:21.270Z,33.52
2022-11-05T04:13:07.767Z,33.65
2022-11-05T04:15:56.292Z,33.75
2022-11-05T04:18:23.611Z,33.92
2022-11-05T04:21:10.453Z,33.79
2022-11-05T04:23:56.285Z,34.57
2022-11-05T04:26:24.487Z,34.77
2022-11-05T04:29:10.370Z,35.24
2022-11-05T04:31:38.962Z,35.59
2022-11-05T04:34:07.430Z,35.40
2022-11-05T04:36:36.979Z,35.44
2022-11-05T04:39:05.422Z,36.04
2022-11-05T04:41:33.608Z,35.44
2022-11-05T04:44:02.445Z,36.19
2022-11-05T04:46:30.672Z,35.85
2022-11-05T04:48:59.233Z,36.22
2022-11-05T04:51:27.987Z,35.93
2022-11-05T04:53:57.732Z,35.42
2022-11-05T04:56:26.131Z,35.98
2022-11-05T04:58:54.695Z,35.80
2022-11-05T05:01:25.318Z,35.90
2022-11-05T05:03:55.043Z,36.07
2022-11-05T05:06:24.129Z,36.17
2022-11-05T05:08:52.949Z,36.16
2022-11-05T05:11:23.017Z,36.22
2022-11-05T05:13:51.658Z,36.44
2022-11-05T05:16:22.357Z,36.10
2022-11-05T05:18:51.072Z,36.30
2022-11-05T05:21:38.484Z,35.98
2022-11-05T05:24:09.329Z,35.98
2022-11-05T05:26:39.741Z,35.77
2022-11-05T05:29:08.551Z,35.74
2022-11-05T05:31:37.057Z,35.81
2022-11-05T05:34:06.208Z,35.54
2022-11-05T05:36:34.736Z,35.71
2022-11-05T05:39:03.276Z,35.35
2022-11-05T05:41:31.684Z,35.66
2022-11-05T05:44:01.496Z,35.54
2022-11-05T05:46:29.779Z,35.64
2022-11-05T05:48:58.228Z,35.47
2022-11-05T05:51:26.300Z,35.46
2022-11-05T05:53:54.932Z,35.21
2022-11-05T05:56:23.229Z,35.13
2022-11-05T05:58:51.863Z,35.20
2022-11-05T06:01:21.912Z,34.92
2022-11-05T06:03:50.480Z,34.96
2022-11-05T06:06:21.220Z,34.75
2022-11-05T06:08:50.027Z,34.83
2022-11-05T06:11:18.035Z,34.67
2022-11-05T06:13:46.450Z,35.01
2022-11-05T06:16:14.539Z,34.65
2022-11-05T06:18:44.554Z,34.21
2022-11-05T06:21:14.115Z,34.73
2022-11-05T06:23:44.441Z,34.49
2022-11-05T06:26:14.455Z,34.41
2022-11-05T06:28:43.409Z,34.32
2022-11-05T06:31:12.431Z,34.29
2022-11-05T06:33:41.919Z,34.23
2022-11-05T06:36:15.386Z,33.19
2022-11-05T06:38:43.772Z,33.79
2022-11-05T06:41:11.788Z,33.74
2022-11-05T06:43:40.477Z,33.54
2022-11-05T06:46:08.786Z,33.50
2022-11-05T06:48:37.511Z,33.41
2022-11-05T06:51:06.551Z,33.60
2022-11-05T06:53:36.853Z,33.06
2022-11-05T06:56:05.871Z,33.58
2022-11-05T06:58:35.056Z,33.46
2022-11-05T07:01:04.093Z,33.23
2022-11-05T07:03:32.567Z,33.33
2022-11-05T07:06:01.255Z,33.26
2022-11-05T07:08:32.072Z,32.89
2022-11-05T07:11:01.827Z,33.15
2022-11-05T07:13:30.271Z,33.07
2022-11-05T07:15:58.674Z,33.10
2022-11-05T07:18:27.056Z,32.86
2022-11-05T07:20:55.356Z,32.89
2022-11-05T07:23:23.713Z,33.03
2022-11-05T07:25:51.879Z,33.05
2022-11-05T07:28:21.737Z,32.79
2022-11-05T07:30:49.935Z,33.11
2022-11-05T07:33:18.404Z,32.79
2022-11-05T07:35:47.024Z,32.86
2022-11-05T07:38:15.362Z,32.42
2022-11-05T07:40:43.590Z,32.33
2022-11-05T07:43:12.414Z,32.24
2022-11-05T07:45:42.391Z,31.89
2022-11-05T07:48:11.098Z,31.91
2022-11-05T07:50:39.345Z,32.16
2022-11-05T07:53:09.600Z,32.19
2022-11-05T07:55:38.381Z,32.32
2022-11-05T07:58:07.028Z,32.28
2022-11-05T08:00:35.443Z,32.78
2022-11-05T08:03:08.437Z,32.66
2022-11-05T08:05:38.560Z,33.00
2022-11-05T08:08:08.120Z,33.13
2022-11-05T08:10:36.776Z,33.43
2022-11-05T08:13:05.778Z,33.34
2022-11-05T08:15:34.457Z,33.44
2022-11-05T08:18:03.505Z,33.41
2022-11-05T08:20:33.473Z,33.35
2022-11-05T08:23:01.941Z,33.45
2022-11-05T08:25:30.709Z,33.32
2022-11-05T08:28:00.253Z,33.20
2022-11-05T08:30:28.961Z,33.44
2022-11-05T08:32:58.769Z,33.48
2022-11-05T08:35:27.304Z,33.51
2022-11-05T08:37:59.423Z,32.83
2022-11-05T08:40:28.098Z,33.66
2022-11-05T08:42:58.188Z,33.21
2022-11-05T08:45:26.423Z,33.75
2022-11-05T08:47:59.985Z,32.98
2022-11-05T08:50:28.427Z,33.36
2022-11-05T08:52:58.283Z,33.35
2022-11-05T08:55:26.728Z,33.64
2022-11-05T08:57:58.877Z,33.20
2022-11-05T09:00:27.585Z,33.51
2022-11-05T09:02:56.057Z,33.69
2022-11-05T09:05:24.133Z,33.34
2022-11-05T09:07:57.873Z,33.39
2022-11-05T09:10:30.525Z,33.30
2022-11-05T09:12:59.549Z,33.56
2022-11-05T09:15:31.929Z,33.61
2022-11-05T09:18:05.676Z,33.41
2022-11-05T09:20:33.989Z,33.23
2022-11-05T09:23:02.637Z,33.11
2022-11-05T09:25:32.237Z,33.14
2022-11-05T09:28:08.442Z,32.80
2022-11-05T09:30:36.510Z,33.49
2022-11-05T09:33:05.665Z,33.53
2022-11-05T09:35:33.690Z,33.64
2022-11-05T09:38:02.392Z,33.69
2022-11-05T09:40:39.125Z,32.91
2022-11-05T09:43:08.077Z,33.52
2022-11-05T09:45:37.321Z,33.42
2022-11-05T09:48:09.200Z,32.87
2022-11-05T09:50:41.297Z,32.91
2022-11-05T09:53:12.411Z,32.85
2022-11-05T09:55:44.710Z,32.63
2022-11-05T09:58:17.299Z,32.65
2022-11-05T10:00:48.678Z,32.94
2022-11-05T10:03:20.661Z,32.61
2022-11-05T10:05:49.989Z,32.79
2022-11-05T10:08:24.978Z,32.41
2022-11-05T10:10:56.324Z,32.44
2022-11-05T10:13:26.945Z,32.61
2022-11-05T10:16:00.973Z,32.18
2022-11-05T10:18:33.312Z,32.02
2022-11-05T10:21:01.757Z,32.47
2022-11-05T10:23:30.408Z,32.50
2022-11-05T10:26:03.197Z,31.86
2022-11-05T10:28:34.141Z,32.16
2022-11-05T10:31:05.707Z,32.06
2022-11-05T10:33:36.457Z,32.41
2022-11-05T10:36:06.879Z,32.61
2022-11-05T10:38:35.470Z,33.27
2022-11-05T10:41:16.128Z,32.71
2022-11-05T10:43:48.601Z,33.03
2022-11-05T10:46:26.481Z,32.75
2022-11-05T10:49:04.825Z,32.73
2022-11-05T10:51:33.620Z,33.29
2022-11-05T10:54:06.131Z,33.02
2022-11-05T10:56:38.241Z,32.65
2022-11-05T10:59:12.396Z,33.03
2022-11-05T11:01:42.968Z,33.23
2022-11-05T11:04:18.371Z,32.48
2022-11-05T11:06:51.550Z,32.70
2022-11-05T11:09:23.632Z,32.92
2022-11-05T11:12:05.600Z,32.27
2022-11-05T11:14:35.351Z,33.51
2022-11-05T11:17:27.093Z,32.79
2022-11-05T11:20:20.614Z,32.96
2022-11-05T11:23:03.344Z,33.13
2022-11-05T11:25:34.548Z,33.93
2022-11-05T11:28:05.295Z,33.67
2022-11-05T11:30:35.342Z,34.04
2022-11-05T11:33:07.396Z,33.94
2022-11-05T11:35:38.381Z,34.06
2022-11-05T11:38:07.306Z,34.13
2022-11-05T11:40:37.944Z,34.27
2022-11-05T11:43:16.734Z,33.70
2022-11-05T11:45:47.662Z,33.96
2022-11-05T11:48:18.714Z,33.91
2022-11-05T11:50:47.835Z,32.95
2022-11-05T11:53:28.039Z,33.42
2022-11-05T11:56:02.873Z,33.71
2022-11-05T11:58:41.101Z,33.36
2022-11-05T12:01:35.442Z,33.20
2022-11-05T12:04:13.866Z,33.69
2022-11-05T12:06:48.367Z,33.73
2022-11-05T12:09:20.490Z,34.10
2022-11-05T12:11:55.366Z,33.97
2022-11-05T12:14:33.013Z,33.32
2022-11-05T12:17:24.476Z,33.26
2022-11-05T12:20:24.737Z,33.21
2022-11-05T12:23:17.649Z,33.00
2022-11-05T12:25:51.748Z,33.48
2022-11-05T12:28:34.000Z,33.35
2022-11-05T12:31:16.347Z,33.20
2022-11-05T12:33:55.144Z,32.91
2022-11-05T12:36:34.833Z,32.94
2022-11-05T12:39:30.697Z,32.53
2022-11-05T12:42:03.010Z,32.81
2022-11-05T12:44:44.946Z,32.72
2022-11-05T12:47:24.172Z,32.50
2022-11-05T12:50:12.186Z,32.52
2022-11-05T12:52:57.716Z,32.42
2022-11-05T12:55:27.487Z,33.11
2022-11-05T12:57:58.537Z,32.92
2022-11-05T13:00:28.305Z,33.26
2022-11-05T13:03:03.062Z,32.72
2022-11-05T13:05:36.270Z,32.46
2022-11-05T13:08:08.092Z,32.66
2022-11-05T13:10:41.536Z,32.17
2022-11-05T13:13:17.044Z,32.07
2022-11-05T13:15:50.939Z,32.17
2022-11-05T13:18:27.195Z,32.18
2022-11-05T13:20:56.942Z,32.16
2022-11-05T13:23:32.423Z,31.88
2022-11-05T13:26:04.586Z,32.03
2022-11-05T13:28:36.849Z,31.94
2022-11-05T13:31:09.332Z,32.07
2022-11-05T13:33:41.776Z,31.58
2022-11-05T13:36:29.399Z,31.79
2022-11-05T13:39:00.747Z,31.61
2022-11-05T13:41:36.189Z,31.67
2022-11-05T13:44:42.820Z,31.03
2022-11-05T13:47:25.715Z,31.55
2022-11-05T13:50:49.126Z,31.14
2022-11-05T13:53:39.698Z,31.40
2022-11-05T13:56:21.193Z,31.36
2022-11-05T13:59:25.588Z,31.21
2022-11-05T14:01:59.807Z,31.65
2022-11-05T14:04:32.633Z,31.93
2022-11-05T14:07:11.530Z,31.44
2022-11-05T14:09:41.494Z,31.88
2022-11-05T14:12:19.813Z,31.28
2022-11-05T14:14:58.502Z,31.45
2022-11-05T14:17:30.500Z,31.79
2022-11-05T14:20:27.761Z,30.76
2022-11-05T14:23:37.907Z,30.84
2022-11-05T14:26:19.207Z,30.75
2022-11-05T14:29:03.811Z,31.01
2022-11-05T14:32:07.253Z,31.01
2022-11-05T14:34:35.501Z,31.12
2022-11-05T14:37:15.636Z,30.68
2022-11-05T14:39:45.853Z,31.01
2022-11-05T14:42:18.418Z,30.74
2022-11-05T14:45:03.555Z,30.26
2022-11-05T14:47:34.334Z,30.78
2022-11-05T14:50:09.489Z,30.88
2022-11-05T14:52:38.738Z,31.24
2022-11-05T14:55:21.426Z,30.88
2022-11-05T14:58:21.411Z,30.56
2022-11-05T15:00:50.310Z,31.35
2022-11-05T15:03:59.229Z,30.68
2022-11-05T15:06:30.072Z,31.30
2022-11-05T15:09:20.990Z,30.67
2022-11-05T15:12:02.527Z,30.75
2022-11-05T15:14:34.141Z,31.22
2022-11-05T15:17:04.325Z,30.19
2022-11-05T15:19:34.543Z,31.30
2022-11-05T15:22:05.831Z,31.12
2022-11-05T15:24:35.056Z,31.28
2022-11-05T15:27:07.783Z,31.16
2022-11-05T15:29:36.336Z,31.62
2022-11-05T15:32:07.089Z,31.52
2022-11-05T15:34:36.555Z,31.36
2022-11-05T15:37:22.322Z,30.76
2022-11-05T15:39:52.160Z,31.47
2022-11-05T15:42:23.910Z,31.01
2022-11-05T15:44:53.092Z,31.57
2022-11-05T15:47:24.050Z,31.25
2022-11-05T15:49:55.013Z,31.31
2022-11-05T15:52:24.435Z,31.34
2022-11-05T15:55:15.402Z,30.56
2022-11-05T15:57:50.677Z,31.05
2022-11-05T16:00:22.287Z,31.51
2022-11-05T16:02:56.335Z,30.75
2022-11-05T16:05:25.865Z,31.35
2022-11-05T16:07:54.227Z,31.48
2022-11-05T16:10:24.797Z,31.37
2022-11-05T16:12:54.217Z,31.31
2022-11-05T16:15:25.208Z,31.53
2022-11-05T16:17:57.533Z,31.34
2022-11-05T16:20:30.227Z,31.56
2022-11-05T16:23:00.344Z,31.50
2022-11-05T16:25:32.929Z,31.54
2022-11-05T16:28:03.284Z,31.64
2022-11-05T16:30:31.794Z,32.03
2022-11-05T16:33:07.681Z,31.17
2022-11-05T16:35:40.881Z,31.37
2022-11-05T16:38:11.661Z,31.67
2022-11-05T16:40:40.105Z,30.51
2022-11-05T16:43:20.048Z,31.03
2022-11-05T16:45:49.210Z,31.80
2022-11-05T16:48:18.024Z,32.13
2022-11-05T16:50:46.979Z,32.28
2022-11-05T16:53:15.303Z,32.12
2022-11-05T16:55:45.420Z,32.21
2022-11-05T16:58:20.687Z,31.79
2022-11-05T17:00:50.010Z,32.42
2022-11-05T17:03:18.428Z,32.12
2022-11-05T17:05:47.260Z,32.20
2022-11-05T17:08:15.624Z,32.46
2022-11-05T17:10:44.142Z,32.40
2022-11-05T17:13:14.640Z,32.08
2022-11-05T17:15:47.050Z,32.13
2022-11-05T17:18:18.556Z,32.38
2022-11-05T17:20:49.201Z,32.21
2022-11-05T17:23:19.679Z,32.26
2022-11-05T17:25:49.221Z,32.45
2022-11-05T17:28:17.793Z,32.28
2022-11-05T17:30:52.285Z,32.18
2022-11-05T17:33:21.596Z,32.71
2022-11-05T17:35:50.313Z,32.46
2022-11-05T17:38:18.884Z,32.55
2022-11-05T17:40:47.425Z,32.42
2022-11-05T17:43:16.387Z,32.59
2022-11-05T17:45:45.919Z,32.52
2022-11-05T17:48:15.490Z,32.56
2022-11-05T17:50:45.010Z,32.64
2022-11-05T17:53:14.037Z,32.50
2022-11-05T17:55:43.171Z,32.52
2022-11-05T17:58:11.712Z,32.60
2022-11-05T18:00:41.383Z,32.33
2022-11-05T18:03:11.226Z,32.45
2022-11-05T18:05:41.608Z,32.15
2022-11-05T18:08:10.284Z,32.48
2022-11-05T18:10:39.337Z,32.43
2022-11-05T18:13:07.662Z,32.51
2022-11-05T18:15:40.986Z,32.24
2022-11-05T18:18:09.712Z,32.46
2022-11-05T18:20:38.276Z,32.21
2022-11-05T18:23:07.654Z,32.04
2022-11-05T18:25:36.133Z,32.27
2022-11-05T18:28:04.590Z,32.47
2022-11-05T18:30:33.066Z,32.60
2022-11-05T18:33:01.546Z,32.40
2022-11-05T18:35:29.926Z,32.55
2022-11-05T18:37:57.946Z,32.46
2022-11-05T18:40:27.754Z,32.25
2022-11-05T18:42:55.849Z,32.57
2022-11-05T18:45:29.377Z,32.64
2022-11-05T18:47:57.897Z,32.66
2022-11-05T18:50:26.393Z,32.26
2022-11-05T18:52:54.542Z,32.46
2022-11-05T18:55:23.039Z,32.62
2022-11-05T18:57:52.655Z,32.12
2022-11-05T19:00:21.430Z,32.40
2022-11-05T19:02:49.807Z,32.42
2022-11-05T19:05:33.964Z,32.44
2022-11-05T19:08:02.081Z,32.51
2022-11-05T19:10:30.459Z,32.43
2022-11-05T19:12:59.913Z,32.04
2022-11-05T19:15:28.411Z,32.41
2022-11-05T19:17:56.499Z,32.45
2022-11-05T19:20:25.215Z,32.46
2022-11-05T19:22:53.343Z,32.70
2022-11-05T19:25:21.802Z,32.63
2022-11-05T19:27:50.030Z,32.50
2022-11-05T19:30:19.992Z,32.61
2022-11-05T19:32:48.272Z,32.55
2022-11-05T19:35:16.630Z,32.63
2022-11-05T19:37:44.896Z,32.63
2022-11-05T19:40:13.638Z,32.30
2022-11-05T19:42:42.254Z,32.62
2022-11-05T19:45:38.119Z,32.42
2022-11-05T19:48:01.281Z,32.25
2022-11-05T19:50:29.660Z,32.45
2022-11-05T19:52:57.962Z,32.70
2022-11-05T19:55:26.406Z,32.66
2022-11-05T19:57:55.005Z,32.60
2022-11-05T20:00:23.473Z,32.70
2022-11-05T20:02:51.780Z,32.46
2022-11-05T20:05:22.390Z,32.20
2022-11-05T20:07:53.089Z,32.15
2022-11-05T20:10:22.111Z,32.20
2022-11-05T20:12:50.564Z,32.26
2022-11-05T20:15:19.804Z,32.68
2022-11-05T20:17:51.755Z,31.93
2022-11-05T20:20:21.737Z,32.36
2022-11-05T20:22:49.910Z,32.59
2022-11-05T20:25:18.315Z,32.65
2022-11-05T20:27:46.581Z,32.70
2022-11-05T20:30:15.181Z,32.77
2022-11-05T20:32:43.368Z,32.83
2022-11-05T20:35:11.734Z,32.92
2022-11-05T20:37:41.291Z,32.52
2022-11-05T20:40:10.910Z,32.62
2022-11-05T20:42:39.052Z,32.70
2022-11-05T20:45:08.238Z,32.73
2022-11-05T20:47:36.485Z,32.85
2022-11-05T20:50:06.229Z,32.48
2022-11-05T20:52:34.846Z,32.63
2022-11-05T20:55:05.332Z,32.67
2022-11-05T20:57:33.701Z,32.59
2022-11-05T21:00:02.258Z,32.51
2022-11-05T21:02:30.491Z,32.41
2022-11-05T21:04:59.221Z,32.63
2022-11-05T21:07:27.423Z,32.54
2022-11-05T21:09:55.897Z,32.53
2022-11-05T21:12:25.502Z,32.21
2022-11-05T21:14:53.824Z,32.58
2022-11-05T21:17:22.144Z,32.32
2022-11-05T21:19:50.474Z,32.48
2022-11-05T21:22:18.655Z,32.46
2022-11-05T21:24:47.133Z,32.54
2022-11-05T21:27:15.179Z,32.62
2022-11-05T21:29:45.003Z,32.41
2022-11-05T21:32:13.130Z,32.54
2022-11-05T21:34:41.510Z,32.62
2022-11-05T21:37:09.644Z,32.54
2022-11-05T21:39:38.037Z,32.78
2022-11-05T21:42:06.191Z,32.74
2022-11-05T21:44:34.699Z,32.84
2022-11-05T21:47:04.994Z,32.62
2022-11-05T21:49:35.365Z,32.61
2022-11-05T21:52:20.683Z,32.86
2022-11-05T21:55:06.501Z,32.79
2022-11-05T21:57:52.333Z,32.90
2022-11-05T22:00:21.107Z,33.22
2022-11-05T22:02:50.888Z,32.93
2022-11-05T22:05:19.404Z,33.12
2022-11-05T22:07:47.431Z,33.44
2022-11-05T22:10:17.244Z,33.43
2022-11-05T22:12:45.714Z,33.32
2022-11-05T22:15:14.494Z,33.42
2022-11-05T22:17:46.441Z,33.47
2022-11-05T22:20:17.915Z,33.06
2022-11-05T22:22:46.287Z,33.14
2022-11-05T22:25:15.572Z,33.24
2022-11-05T22:27:44.317Z,33.24
2022-11-05T22:30:14.314Z,33.70
2022-11-05T22:32:42.432Z,33.73
2022-11-05T22:35:11.281Z,33.91
2022-11-05T22:37:40.903Z,33.81
2022-11-05T22:40:10.146Z,33.40
2022-11-05T22:42:38.472Z,33.77
2022-11-05T22:45:07.823Z,33.47
2022-11-05T22:47:35.911Z,33.64
2022-11-05T22:50:04.812Z,33.75
2022-11-05T22:52:33.328Z,34.01
2022-11-05T22:55:05.249Z,34.12
2022-11-05T22:57:33.731Z,33.92
2022-11-05T23:00:02.218Z,34.32
2022-11-05T23:02:33.235Z,33.95
2022-11-05T23:05:01.721Z,34.24
2022-11-05T23:07:47.385Z,33.94
2022-11-05T23:10:34.571Z,33.82
2022-11-05T23:13:04.429Z,33.64
2022-11-05T23:15:50.023Z,33.47
2022-11-05T23:18:35.547Z,33.64
2022-11-05T23:21:23.163Z,33.83
2022-11-05T23:24:06.857Z,33.88
2022-11-05T23:26:54.044Z,33.54
2022-11-05T23:29:23.580Z,33.71
2022-11-05T23:32:09.781Z,33.80
2022-11-05T23:34:37.891Z,33.68
2022-11-05T23:37:24.080Z,33.60
2022-11-05T23:39:52.434Z,33.54
2022-11-05T23:42:39.975Z,33.58
2022-11-05T23:45:26.694Z,33.58
2022-11-05T23:48:12.866Z,33.59
2022-11-05T23:50:41.421Z,33.60
2022-11-05T23:53:10.078Z,33.55
2022-11-05T23:55:38.486Z,33.70
2022-11-05T23:58:08.659Z,33.45
